SAS55U ENGM-ENBR
Flight info
| Callsign | SAS55U |
|---|---|
| Flight time | N/A |
| Altitude | 26000 |
| Route | ATLAP DCT AGEKU DCT PESUR |
| Aircraft | A20N/M-SDE2E3FGHIRWXY/LB1 |
Departure
| Time | N/A |
|---|---|
| Airport | Oslo-Gardermoen International Airport (ENGM) |
Arrival
| Time | 2026-05-01 07:28 |
|---|---|
| Airport | Bergen Airport, Flesland (ENBR) |
| Time | Latitude | Longitude | Altitude | Speed | Heading |
|---|---|---|---|---|---|
| 2026-05-01 07:23 | 60.48124 | 5.15431 | 3805 ft | 222 kts | 173° |
| 2026-05-01 07:23 | 60.45244 | 5.16427 | 3219 ft | 198 kts | 173° |
| 2026-05-01 07:24 | 60.43902 | 5.16885 | 2940 ft | 193 kts | 173° |
| 2026-05-01 07:24 | 60.42605 | 5.17321 | 2664 ft | 185 kts | 173° |
| 2026-05-01 07:24 | 60.41364 | 5.17744 | 2420 ft | 172 kts | 173° |
| 2026-05-01 07:24 | 60.40268 | 5.18120 | 2226 ft | 153 kts | 173° |
| 2026-05-01 07:25 | 60.39274 | 5.18458 | 2043 ft | 135 kts | 172° |
| 2026-05-01 07:25 | 60.38387 | 5.18759 | 1828 ft | 120 kts | 172° |
| 2026-05-01 07:25 | 60.37595 | 5.19025 | 1676 ft | 115 kts | 172° |
| 2026-05-01 07:25 | 60.36811 | 5.19279 | 1513 ft | 116 kts | 172° |
| 2026-05-01 07:26 | 60.35994 | 5.19528 | 1397 ft | 121 kts | 170° |
| 2026-05-01 07:26 | 60.35165 | 5.19854 | 1189 ft | 121 kts | 170° |
| 2026-05-01 07:26 | 60.34335 | 5.20115 | 965 ft | 120 kts | 171° |
| 2026-05-01 07:26 | 60.33571 | 5.20360 | 832 ft | 121 kts | 169° |
| 2026-05-01 07:27 | 60.32747 | 5.20653 | 654 ft | 120 kts | 169° |
| 2026-05-01 07:27 | 60.31916 | 5.20938 | 507 ft | 121 kts | 167° |
| 2026-05-01 07:27 | 60.31087 | 5.21218 | 350 ft | 120 kts | 168° |
| 2026-05-01 07:27 | 60.30254 | 5.21505 | 202 ft | 121 kts | 167° |
| 2026-05-01 07:28 | 60.29518 | 5.21756 | 153 ft | 78 kts | 170° |
| 2026-05-01 07:28 | 60.29137 | 5.21879 | 163 ft | 49 kts | 169° |
| 2026-05-01 07:28 | 60.28913 | 5.22038 | 167 ft | 16 kts | 97° |
| 2026-05-01 07:28 | 60.28921 | 5.22158 | 170 ft | 4 kts | 80° |
| 2026-05-01 07:29 | 60.28922 | 5.22175 | 171 ft | 0 kts | 80° |
| 2026-05-01 07:29 | 60.28926 | 5.22216 | 172 ft | 7 kts | 80° |
| 2026-05-01 07:29 | 60.28951 | 5.22318 | 177 ft | 7 kts | 59° |
| 2026-05-01 07:29 | 60.28957 | 5.22391 | 178 ft | 5 kts | 105° |
| 2026-05-01 07:30 | 60.28941 | 5.22491 | 178 ft | 9 kts | 108° |
| 2026-05-01 07:30 | 60.28932 | 5.22543 | 178 ft | 1 kts | 107° |